Time;durP1;ratioP1;P1;durP2;ratioP2;P2;SDS_P1;SDS_P2;PMS_P1;PMS_P2;Temp;Humidity;BMP_temperature;BMP_pressure;BME280_temperature;BME280_humidity;BME280_pressure;Samples;Min_cycle;Max_cycle;Signal;HPM_P1;HPM_P2
2022/03/23 00:01:50;;;;;;;3.13;2.23;;;;;;;10.24;36.32;95773.19;5093126;28;20579;-82
2022/03/23 00:04:16;;;;;;;3.73;2.50;;;;;;;10.21;36.24;95784.44;5093083;28;20220;-77
2022/03/23 00:06:44;;;;;;;4.57;2.43;;;;;;;10.18;36.32;95786.38;5092534;28;20178;-82
2022/03/23 00:09:12;;;;;;;3.70;2.13;;;;;;;10.02;36.48;95758.56;5092593;28;20182;-81
2022/03/23 00:11:39;;;;;;;2.53;2.30;;;;;;;10.08;36.42;95773.44;5092902;28;20729;-80
2022/03/23 00:14:06;;;;;;;5.13;2.50;;;;;;;10.10;36.45;95776.69;5092123;28;20203;-76
2022/03/23 00:16:35;;;;;;;5.73;2.87;;;;;;;10.07;36.31;95791.44;5092888;28;20268;-80
2022/03/23 00:19:02;;;;;;;4.87;2.40;;;;;;;10.04;36.35;95788.16;5093160;28;20217;-79
2022/03/23 00:21:29;;;;;;;4.97;3.40;;;;;;;9.95;36.45;95777.78;5092375;28;20196;-84
2022/03/23 00:23:56;;;;;;;4.33;2.53;;;;;;;9.97;36.55;95781.88;5091589;28;20234;-78
2022/03/23 00:26:23;;;;;;;6.23;2.93;;;;;;;9.97;36.60;95775.91;5091251;28;20189;-79
2022/03/23 00:28:50;;;;;;;5.33;2.63;;;;;;;9.97;36.49;95781.03;5092110;28;20706;-79
2022/03/23 00:31:18;;;;;;;3.70;2.80;;;;;;;9.85;36.65;95762.28;5092686;28;20212;-82
2022/03/23 00:33:47;;;;;;;3.57;2.10;;;;;;;9.85;36.58;95772.50;5100282;28;20243;-78
2022/03/23 00:36:14;;;;;;;3.57;2.30;;;;;;;9.78;37.02;95764.44;5108662;28;20650;-83
2022/03/23 00:38:40;;;;;;;3.80;2.60;;;;;;;9.82;36.70;95780.38;5110212;28;20189;-81
2022/03/23 00:41:08;;;;;;;6.53;2.80;;;;;;;9.84;36.88;95782.81;5109692;28;20606;-81
2022/03/23 00:43:36;;;;;;;2.40;2.20;;;;;;;9.74;36.86;95772.41;5107642;28;20243;-85
2022/03/23 00:46:03;;;;;;;4.77;2.27;;;;;;;9.68;36.92;95766.00;5102895;28;20188;-84
2022/03/23 00:48:30;;;;;;;10.33;2.90;;;;;;;9.74;37.09;95780.09;5104390;28;20272;-87
2022/03/23 00:50:59;;;;;;;4.43;2.73;;;;;;;9.68;36.84;95783.88;5093549;28;20200;-85
2022/03/23 00:53:26;;;;;;;2.97;2.53;;;;;;;9.70;36.86;95784.59;5092880;28;20190;-83
2022/03/23 00:55:53;;;;;;;8.10;2.70;;;;;;;9.67;37.11;95781.41;5092747;28;20725;-87
2022/03/23 00:58:19;;;;;;;4.03;2.50;;;;;;;9.67;37.05;95784.81;5092296;28;20200;-83
2022/03/23 01:00:47;;;;;;;3.00;2.40;;;;;;;9.62;37.18;95781.72;5092108;28;20565;-85
2022/03/23 01:03:14;;;;;;;5.67;2.30;;;;;;;9.52;37.15;95773.88;5091742;28;20285;-86
2022/03/23 01:05:41;;;;;;;3.47;2.40;;;;;;;9.46;36.95;95758.19;5092366;28;20198;-87
2022/03/23 01:08:09;;;;;;;4.30;2.67;;;;;;;9.54;36.97;95779.72;5093570;28;20683;-85
2022/03/23 01:10:36;;;;;;;6.67;2.67;;;;;;;9.54;37.08;95784.84;5096663;28;20186;-87
2022/03/23 01:13:03;;;;;;;5.63;2.57;;;;;;;9.46;37.17;95768.41;5092692;28;20193;-86
2022/03/23 01:15:30;;;;;;;5.50;2.93;;;;;;;9.44;37.17;95773.59;5095206;28;20271;-87
2022/03/23 01:17:57;;;;;;;3.40;2.47;;;;;;;9.49;37.06;95776.63;5098525;28;20190;-93
2022/03/23 01:20:24;;;;;;;4.03;2.50;;;;;;;9.47;37.46;95775.94;5098598;28;20664;-92
2022/03/23 01:22:51;;;;;;;3.67;2.73;;;;;;;9.47;37.14;95773.38;5098510;28;20664;-92
2022/03/23 01:25:20;;;;;;;4.23;2.73;;;;;;;9.40;37.06;95764.50;5098548;28;20224;-93
2022/03/23 01:27:47;;;;;;;3.57;2.70;;;;;;;9.41;37.08;95757.66;5104078;28;20200;-88
2022/03/23 01:30:16;;;;;;;3.30;2.30;;;;;;;9.37;37.16;95751.97;5101354;28;20212;-93
2022/03/23 01:32:44;;;;;;;11.83;3.30;;;;;;;9.40;37.16;95756.03;5098589;28;20186;-89
2022/03/23 01:35:13;;;;;;;3.13;2.27;;;;;;;9.40;37.01;95750.94;5095844;28;20178;-94
2022/03/23 01:37:42;;;;;;;5.60;2.50;;;;;;;9.35;37.22;95740.22;5101527;28;20190;-85
2022/03/23 01:40:11;;;;;;;4.67;2.40;;;;;;;9.41;37.08;95750.84;5106485;28;20288;-91
2022/03/23 01:42:40;;;;;;;5.13;2.40;;;;;;;9.42;36.90;95755.03;5106176;28;20280;-84
2022/03/23 01:45:09;;;;;;;10.37;2.73;;;;;;;9.41;36.84;95747.44;5101909;28;20209;-81
2022/03/23 01:47:36;;;;;;;20.37;3.60;;;;;;;8.98;36.99;95689.09;5095566;28;20198;-79
2022/03/23 01:50:06;;;;;;;4.30;2.40;;;;;;;9.26;36.94;95744.22;5092186;28;20224;-81
2022/03/23 01:52:33;;;;;;;6.23;2.53;;;;;;;9.25;36.90;95738.28;5092638;28;20189;-80
2022/03/23 01:55:02;;;;;;;4.67;2.83;;;;;;;9.33;37.04;95758.19;5094746;28;20181;-82
2022/03/23 01:57:29;;;;;;;4.07;2.80;;;;;;;9.33;36.96;95753.09;5092160;28;20194;-78
2022/03/23 01:59:58;;;;;;;5.63;2.87;;;;;;;9.32;36.98;95758.28;5093774;28;20190;-79
2022/03/23 02:02:25;;;;;;;5.27;2.97;;;;;;;9.30;36.77;95749.00;5092845;28;20200;-77
2022/03/23 02:04:52;;;;;;;3.10;2.30;;;;;;;9.29;37.02;95755.03;5090769;28;20227;-77
2022/03/23 02:07:19;;;;;;;3.80;2.47;;;;;;;9.26;37.14;95752.69;5090607;28;20185;-79
2022/03/23 02:09:46;;;;;;;5.50;2.67;;;;;;;9.24;37.02;95751.13;5090711;28;20227;-77
2022/03/23 02:12:14;;;;;;;4.97;2.33;;;;;;;9.21;37.00;95743.72;5090428;28;20197;-79
2022/03/23 02:14:41;;;;;;;4.83;2.80;;;;;;;9.19;37.19;95748.91;5091136;28;20197;-81
2022/03/23 02:17:10;;;;;;;3.30;2.43;;;;;;;9.06;37.32;95737.88;5092011;28;20190;-78
2022/03/23 02:19:36;;;;;;;2.40;2.20;;;;;;;9.14;37.48;95745.84;5090549;28;20211;-80
2022/03/23 02:22:05;;;;;;;6.80;2.93;;;;;;;9.13;37.37;95753.59;5090857;28;20228;-79
2022/03/23 02:24:32;;;;;;;2.50;2.30;;;;;;;9.10;37.29;95739.31;5090423;28;20229;-80
2022/03/23 02:27:01;;;;;;;6.83;2.80;;;;;;;9.07;37.25;95742.09;5090112;28;20189;-79
2022/03/23 02:29:31;;;;;;;4.67;2.80;;;;;;;9.08;37.37;95745.44;5090241;28;20186;-79
2022/03/23 02:31:59;;;;;;;4.63;2.70;;;;;;;9.05;37.49;95749.00;5089991;28;20185;-79
2022/03/23 02:34:26;;;;;;;2.53;2.30;;;;;;;9.07;37.62;95754.00;5090455;28;20182;-79
2022/03/23 02:36:54;;;;;;;4.50;2.37;;;;;;;9.05;37.40;95756.66;5090177;28;20197;-79
2022/03/23 02:39:22;;;;;;;7.43;3.27;;;;;;;8.95;37.66;95740.34;5089780;28;20579;-83
2022/03/23 02:41:49;;;;;;;3.73;2.20;;;;;;;9.04;37.63;95755.03;5090733;28;20200;-82
2022/03/23 02:44:17;;;;;;;3.17;2.67;;;;;;;8.98;37.68;95747.78;5090163;28;20221;-81
2022/03/23 02:46:44;;;;;;;2.87;2.50;;;;;;;8.97;37.60;95756.34;5090381;28;20203;-78
2022/03/23 02:49:11;;;;;;;3.50;2.17;;;;;;;8.96;37.63;95760.66;5089773;28;20201;-80
2022/03/23 02:51:38;;;;;;;4.63;2.93;;;;;;;8.94;37.81;95752.28;5090619;28;20564;-77
2022/03/23 03:02:36;;;;;;;3.70;2.80;;;;;;;8.88;38.31;95759.50;5086892;28;21867;-78
2022/03/23 03:05:04;;;;;;;5.67;2.33;;;;;;;8.85;38.26;95760.56;5087748;28;20216;-78
2022/03/23 03:08:44;;;;;;;7.43;3.07;;;;;;;8.85;38.36;95763.09;5087200;28;20684;-79
2022/03/23 03:10:20;;;;;;;12.03;3.27;;;;;;;8.83;38.53;95764.09;5090094;28;20220;-80
2022/03/23 03:12:49;;;;;;;4.00;2.60;;;;;;;8.78;38.55;95769.50;5091280;28;20209;-80
2022/03/23 03:15:17;;;;;;;5.03;3.03;;;;;;;8.77;38.66;95766.16;5091436;28;20193;-81
2022/03/23 03:17:43;;;;;;;6.23;2.77;;;;;;;8.75;38.76;95767.16;5091064;28;20200;-78
2022/03/23 03:20:11;;;;;;;4.73;3.00;;;;;;;8.67;38.84;95762.53;5091653;28;20196;-79
2022/03/23 03:22:40;;;;;;;5.63;3.30;;;;;;;8.69;38.89;95760.72;5091888;28;20225;-83
2022/03/23 03:25:09;;;;;;;8.77;3.27;;;;;;;8.65;38.88;95764.41;5092233;28;20225;-80
2022/03/23 03:27:39;;;;;;;7.50;3.17;;;;;;;8.61;39.17;95764.69;5091482;28;20200;-79
2022/03/23 03:30:10;;;;;;;6.13;2.90;;;;;;;8.59;39.28;95762.22;5091537;28;20209;-87
2022/03/23 03:32:37;;;;;;;5.63;3.23;;;;;;;8.48;39.28;95745.09;5091433;28;20198;-82
2022/03/23 03:35:05;;;;;;;7.10;3.33;;;;;;;8.58;39.60;95759.78;5094285;28;20197;-80
2022/03/23 03:37:31;;;;;;;6.10;3.00;;;;;;;8.56;39.70;95756.53;5093166;28;20193;-81
2022/03/23 03:39:59;;;;;;;3.77;2.60;;;;;;;8.46;39.86;95738.44;5093822;28;20186;-77
2022/03/23 03:42:26;;;;;;;7.93;3.60;;;;;;;8.54;40.01;95759.16;5094143;28;20227;-79
2022/03/23 03:44:53;;;;;;;5.03;3.57;;;;;;;8.53;40.11;95757.53;5093813;28;20640;-81
2022/03/23 03:47:21;;;;;;;4.80;2.73;;;;;;;8.54;40.09;95749.78;5093232;28;20182;-81
2022/03/23 03:49:48;;;;;;;4.60;2.70;;;;;;;8.52;40.29;95761.00;5093862;28;20182;-82
2022/03/23 03:52:15;;;;;;;2.90;2.30;;;;;;;8.50;40.55;95755.16;5093434;28;20205;-86
2022/03/23 03:54:42;;;;;;;6.87;2.77;;;;;;;8.48;40.95;95755.28;5093473;28;20189;-86
2022/03/23 03:57:10;;;;;;;3.77;2.93;;;;;;;8.48;40.83;95764.66;5093384;28;20185;-80
2022/03/23 03:59:37;;;;;;;3.87;2.63;;;;;;;8.46;40.90;95769.03;5093298;28;20190;-82
2022/03/23 04:02:05;;;;;;;5.50;2.60;;;;;;;8.47;41.04;95771.50;5093094;28;20653;-85
2022/03/23 04:04:33;;;;;;;4.37;2.70;;;;;;;8.48;41.13;95765.47;5093144;28;20219;-78
2022/03/23 04:07:00;;;;;;;6.07;3.13;;;;;;;8.50;40.91;95773.00;5094562;28;20362;-80
2022/03/23 04:09:27;;;;;;;3.37;2.33;;;;;;;8.48;41.37;95778.22;5094277;28;20682;-86
2022/03/23 04:11:54;;;;;;;5.60;3.00;;;;;;;8.41;41.53;95771.88;5094603;28;20190;-83
2022/03/23 04:14:20;;;;;;;3.00;2.67;;;;;;;8.46;41.48;95777.50;5093638;28;20640;-78
2022/03/23 04:16:47;;;;;;;4.10;3.00;;;;;;;8.43;41.46;95770.06;5092919;28;20193;-79
2022/03/23 04:19:14;;;;;;;5.10;2.80;;;;;;;8.31;41.75;95755.50;5092278;28;20193;-79
2022/03/23 04:21:42;;;;;;;8.97;2.87;;;;;;;8.43;41.69;95774.34;5091772;28;20204;-77
2022/03/23 04:24:09;;;;;;;5.73;2.67;;;;;;;8.46;41.54;95779.22;5092634;28;20218;-77
2022/03/23 04:26:36;;;;;;;3.93;2.37;;;;;;;8.46;41.76;95774.97;5092353;28;20684;-80
2022/03/23 04:29:06;;;;;;;3.63;3.00;;;;;;;8.29;41.63;95757.34;5092706;28;20205;-80
2022/03/23 04:31:33;;;;;;;6.10;3.53;;;;;;;8.42;41.78;95773.53;5092502;28;20585;-80
2022/03/23 04:33:59;;;;;;;9.00;2.77;;;;;;;8.44;41.77;95775.97;5092579;28;20190;-80
2022/03/23 04:36:26;;;;;;;5.23;2.93;;;;;;;8.45;41.86;95777.59;5091537;28;20198;-80
2022/03/23 04:38:54;;;;;;;4.47;3.03;;;;;;;8.44;41.93;95778.50;5092349;28;20205;-79
2022/03/23 04:41:21;;;;;;;7.83;2.60;;;;;;;8.44;42.08;95773.41;5092211;28;20488;-79
2022/03/23 04:43:48;;;;;;;5.60;3.10;;;;;;;8.37;41.99;95767.06;5092358;28;20200;-79
2022/03/23 04:46:15;;;;;;;4.07;2.67;;;;;;;8.45;42.29;95783.50;5091107;28;20231;-81
2022/03/23 04:48:42;;;;;;;6.33;3.27;;;;;;;8.47;41.97;95778.34;5092155;28;20200;-79
2022/03/23 04:51:09;;;;;;;5.87;2.47;;;;;;;8.39;41.99;95762.72;5091789;28;20225;-79
2022/03/23 04:53:36;;;;;;;7.53;3.57;;;;;;;8.43;42.12;95761.59;5092718;28;20189;-79
2022/03/23 04:56:04;;;;;;;7.13;2.93;;;;;;;8.56;42.09;95782.03;5092626;28;20188;-80
2022/03/23 04:58:31;;;;;;;12.50;3.27;;;;;;;8.60;42.02;95780.91;5092835;28;20178;-79
2022/03/23 05:00:58;;;;;;;6.67;2.80;;;;;;;8.60;42.09;95765.63;5091744;28;20250;-81
2022/03/23 05:03:25;;;;;;;5.07;3.20;;;;;;;8.69;41.82;95762.47;5092147;28;20186;-79
2022/03/23 05:05:52;;;;;;;8.90;3.27;;;;;;;8.81;41.92;95776.97;5092219;28;20249;-78
2022/03/23 05:08:19;;;;;;;5.70;3.53;;;;;;;8.86;41.90;95779.22;5092673;28;20193;-78
2022/03/23 05:10:46;;;;;;;12.63;3.07;;;;;;;8.90;41.87;95776.38;5092271;28;20631;-79
2022/03/23 05:13:14;;;;;;;6.07;3.37;;;;;;;9.05;41.85;95780.44;5091928;28;20193;-79
2022/03/23 05:15:41;;;;;;;7.20;2.93;;;;;;;9.22;41.56;95783.63;5091777;28;20691;-79
2022/03/23 05:18:08;;;;;;;7.87;3.10;;;;;;;9.47;41.33;95796.38;5092629;28;20193;-80
2022/03/23 05:20:35;;;;;;;8.67;3.43;;;;;;;9.89;41.19;95793.56;5092265;28;20271;-79
2022/03/23 05:23:02;;;;;;;8.27;3.33;;;;;;;10.39;41.08;95789.19;5093113;28;20253;-81
2022/03/23 05:25:30;;;;;;;4.13;2.73;;;;;;;10.99;40.88;95791.59;5093057;28;20241;-80
2022/03/23 05:27:57;;;;;;;7.40;2.90;;;;;;;11.67;40.86;95789.94;5093750;28;20233;-76
2022/03/23 05:30:25;;;;;;;8.17;2.90;;;;;;;12.41;40.52;95787.59;5093708;28;20201;-77
2022/03/23 05:32:52;;;;;;;3.70;2.80;;;;;;;13.20;39.84;95793.16;5095676;28;20194;-76
2022/03/23 05:35:19;;;;;;;5.47;2.93;;;;;;;14.02;38.95;95794.88;5092325;28;20660;-84
2022/03/23 05:37:46;;;;;;;5.33;2.87;;;;;;;14.79;38.20;95789.84;5092644;28;20193;-80
2022/03/23 05:40:13;;;;;;;5.67;2.90;;;;;;;15.55;37.38;95782.13;5094121;28;20189;-86
2022/03/23 05:42:41;;;;;;;6.97;3.00;;;;;;;16.43;36.47;95802.34;5096086;28;20197;-87
2022/03/23 05:45:09;;;;;;;4.43;2.67;;;;;;;17.13;35.21;95792.13;5094679;28;20223;-85
2022/03/23 05:47:38;;;;;;;7.20;2.80;;;;;;;17.75;34.23;95785.91;5094920;28;20251;-87
2022/03/23 05:50:06;;;;;;;3.37;2.77;;;;;;;18.43;33.68;95784.16;5098059;28;20189;-87
2022/03/23 05:52:33;;;;;;;5.43;3.57;;;;;;;19.19;32.74;95802.06;5094372;28;20190;-76
2022/03/23 05:55:01;;;;;;;5.93;3.50;;;;;;;19.76;32.20;95806.34;5083882;28;20273;-78
2022/03/23 05:57:28;;;;;;;5.83;2.87;;;;;;;20.40;31.45;95801.06;5087960;28;20196;-78
2022/03/23 05:59:55;;;;;;;5.77;3.03;;;;;;;20.99;30.85;95802.16;5090391;28;20649;-75
2022/03/23 06:02:21;;;;;;;6.03;3.03;;;;;;;21.63;29.95;95809.56;5090940;28;20190;-75
2022/03/23 06:04:50;;;;;;;5.13;2.70;;;;;;;22.24;29.27;95804.97;5090414;28;20203;-79
2022/03/23 06:07:17;;;;;;;5.97;3.17;;;;;;;22.87;29.92;95813.06;5090066;28;20214;-77
2022/03/23 06:09:44;;;;;;;5.72;2.45;;;;;;;23.40;31.44;95803.09;5090078;28;20200;-77
2022/03/23 06:12:12;;;;;;;7.13;2.58;;;;;;;23.87;30.83;95801.59;5090569;28;20194;-77
2022/03/23 06:14:42;;;;;;;5.03;2.65;;;;;;;24.25;30.19;95811.63;5089537;28;20189;-80
2022/03/23 06:17:09;;;;;;;6.47;3.28;;;;;;;24.57;29.29;95794.47;5090315;28;20193;-77
2022/03/23 06:19:36;;;;;;;4.68;3.00;;;;;;;24.99;27.55;95814.25;5090091;28;20186;-75
2022/03/23 06:22:05;;;;;;;5.25;2.95;;;;;;;25.27;27.01;95806.25;5090625;28;20193;-73
2022/03/23 06:24:31;;;;;;;6.43;3.00;;;;;;;25.56;26.77;95813.88;5089370;28;20221;-76
2022/03/23 06:26:58;;;;;;;6.25;3.00;;;;;;;25.77;26.36;95808.41;5089890;28;20213;-77
2022/03/23 06:29:25;;;;;;;5.15;2.50;;;;;;;25.98;26.21;95813.41;5090149;28;20193;-76
2022/03/23 06:31:52;;;;;;;4.93;2.92;;;;;;;26.20;26.86;95811.31;5089935;28;20545;-76
2022/03/23 06:34:19;;;;;;;3.30;2.65;;;;;;;26.39;27.27;95812.25;5089930;28;20186;-74
2022/03/23 06:36:46;;;;;;;8.30;3.38;;;;;;;26.39;22.70;95806.22;5089370;28;20193;-77
2022/03/23 06:39:14;;;;;;;6.68;3.15;;;;;;;26.07;24.36;95815.81;5080885;28;20198;-78
2022/03/23 06:41:41;;;;;;;5.93;2.80;;;;;;;26.11;25.91;95809.13;5066827;28;20197;-74
2022/03/23 06:44:07;;;;;;;5.35;2.78;;;;;;;26.33;26.11;95820.94;5085478;28;20646;-75
2022/03/23 06:46:34;;;;;;;5.68;2.80;;;;;;;26.55;25.92;95818.06;5087365;28;20598;-74
2022/03/23 06:49:01;;;;;;;5.47;2.97;;;;;;;26.70;26.05;95824.63;5087484;28;20239;-77
2022/03/23 06:51:28;;;;;;;7.38;3.35;;;;;;;26.86;25.09;95831.22;5086728;28;20192;-75
2022/03/23 06:53:55;;;;;;;4.93;2.22;;;;;;;26.92;25.38;95817.22;5087325;28;20190;-77
2022/03/23 06:56:23;;;;;;;4.57;2.72;;;;;;;27.06;25.81;95831.06;5087556;28;20636;-75
2022/03/23 06:58:50;;;;;;;3.40;2.53;;;;;;;27.21;26.13;95831.63;5086764;28;20196;-73
2022/03/23 07:01:17;;;;;;;4.57;2.70;;;;;;;27.35;25.85;95828.88;5084051;28;20848;-75
2022/03/23 07:03:43;;;;;;;4.10;2.90;;;;;;;27.50;25.56;95832.81;5085655;28;20189;-73
2022/03/23 07:06:10;;;;;;;5.82;2.63;;;;;;;27.58;25.23;95836.94;5086286;28;20224;-75
2022/03/23 07:11:23;;;;;;;8.77;3.13;;;;;;;27.77;25.14;95829.94;5086058;28;20311;-72
2022/03/23 07:13:50;;;;;;;8.55;3.53;;;;;;;27.91;24.78;95841.94;5085233;28;20646;-74
2022/03/23 07:16:17;;;;;;;4.97;2.60;;;;;;;28.02;24.38;95835.13;5085685;28;20197;-74
2022/03/23 07:18:44;;;;;;;4.30;2.95;;;;;;;28.09;24.82;95837.72;5086309;28;20193;-75
2022/03/23 07:21:11;;;;;;;5.57;3.10;;;;;;;28.17;24.66;95842.69;5086788;28;20320;-75
2022/03/23 07:23:38;;;;;;;5.80;2.78;;;;;;;28.24;23.97;95838.16;5085603;28;20233;-74
2022/03/23 07:26:06;;;;;;;7.40;3.20;;;;;;;28.25;22.38;95843.19;5085993;28;20209;-73
2022/03/23 07:28:34;;;;;;;7.13;3.42;;;;;;;28.28;22.61;95841.91;5086213;28;20182;-77
2022/03/23 07:31:01;;;;;;;4.35;2.88;;;;;;;28.33;23.39;95844.72;5085754;28;20197;-75
2022/03/23 07:33:28;;;;;;;7.25;3.00;;;;;;;28.38;23.28;95836.19;5086166;28;20245;-75
2022/03/23 07:35:55;;;;;;;8.80;3.13;;;;;;;28.44;23.21;95843.19;5085776;28;20200;-74
2022/03/23 07:38:22;;;;;;;4.85;3.20;;;;;;;28.48;22.77;95845.16;5085950;28;20644;-75
2022/03/23 07:40:49;;;;;;;5.60;2.60;;;;;;;28.51;22.82;95841.28;5085954;28;20201;-73
2022/03/23 07:43:16;;;;;;;4.82;3.03;;;;;;;28.54;23.57;95847.94;5085779;28;20589;-73
2022/03/23 07:45:44;;;;;;;7.00;2.53;;;;;;;28.60;23.45;95839.97;5086115;28;20198;-75
2022/03/23 07:48:11;;;;;;;8.90;2.90;;;;;;;28.70;23.54;95849.94;5084866;28;20210;-72
2022/03/23 07:50:38;;;;;;;4.22;2.50;;;;;;;28.78;23.65;95844.38;5086179;28;20193;-78
2022/03/23 07:53:05;;;;;;;5.75;2.75;;;;;;;28.86;24.23;95841.44;5086251;28;20205;-74
2022/03/23 07:55:31;;;;;;;3.42;2.20;;;;;;;28.87;24.19;95842.22;5086870;28;20201;-74
2022/03/23 07:57:58;;;;;;;6.97;2.50;;;;;;;28.94;23.76;95849.03;5089317;28;20185;-75
2022/03/23 08:00:25;;;;;;;4.05;2.88;;;;;;;28.97;23.79;95843.34;5089134;28;20208;-79
2022/03/23 08:02:53;;;;;;;3.80;2.50;;;;;;;28.99;23.91;95841.28;5089555;28;20288;-80
2022/03/23 08:05:20;;;;;;;4.90;3.47;;;;;;;29.04;23.71;95843.22;5089675;28;20201;-72
2022/03/23 08:07:47;;;;;;;5.65;3.38;;;;;;;28.90;19.81;95839.16;5091491;28;20205;-75
2022/03/23 08:10:14;;;;;;;5.75;4.88;;;;;;;28.18;20.15;95833.75;5092114;28;20221;-75
2022/03/23 08:12:41;;;;;;;8.82;4.95;;;;;;;27.34;20.75;95843.84;5090633;28;20452;-75
2022/03/23 08:15:10;;;;;;;6.53;4.72;;;;;;;26.86;21.53;95841.72;5091381;28;20197;-73
2022/03/23 08:17:38;;;;;;;9.50;4.05;;;;;;;26.80;21.88;95839.13;5091555;28;20304;-74
2022/03/23 08:22:52;;;;;;;7.65;3.80;;;;;;;26.98;21.94;95839.19;5091590;28;20311;-76
2022/03/23 08:25:19;;;;;;;5.40;3.90;;;;;;;27.09;21.99;95835.94;5088763;28;20573;-76
2022/03/23 08:27:46;;;;;;;4.75;2.78;;;;;;;27.20;22.08;95831.81;5091089;28;20225;-77
2022/03/23 08:30:13;;;;;;;5.25;3.13;;;;;;;27.27;22.01;95833.38;5087394;28;20266;-75
2022/03/23 08:32:40;;;;;;;5.80;3.13;;;;;;;27.35;22.15;95831.50;5091734;28;20208;-75
2022/03/23 08:35:09;;;;;;;6.40;3.00;;;;;;;27.38;21.72;95829.25;5091205;28;20186;-74
2022/03/23 08:37:37;;;;;;;6.65;2.80;;;;;;;27.41;21.91;95833.25;5091901;28;20198;-77
2022/03/23 08:40:05;;;;;;;7.05;3.15;;;;;;;27.43;21.62;95841.75;5091430;28;20204;-75
2022/03/23 08:42:32;;;;;;;4.60;3.35;;;;;;;27.39;21.88;95854.50;5088023;28;20175;-77
2022/03/23 08:44:59;;;;;;;4.25;3.10;;;;;;;27.12;22.09;95845.22;5090135;28;20205;-76
2022/03/23 08:47:27;;;;;;;5.30;2.80;;;;;;;26.71;22.01;95849.88;5088664;28;20229;-75
2022/03/23 08:49:55;;;;;;;6.05;3.10;;;;;;;26.13;21.65;95841.22;5091279;28;20197;-75
2022/03/23 08:52:24;;;;;;;7.88;3.72;;;;;;;25.48;22.03;95851.56;5090861;28;20190;-76
2022/03/23 08:54:51;;;;;;;11.77;3.83;;;;;;;24.82;22.03;95833.94;5090975;28;20192;-76
2022/03/23 08:57:18;;;;;;;5.95;3.75;;;;;;;24.21;22.47;95837.34;5090669;28;20209;-74
2022/03/23 08:59:45;;;;;;;9.55;3.70;;;;;;;23.65;22.86;95834.00;5092242;28;20254;-76
2022/03/23 09:02:13;;;;;;;6.15;3.13;;;;;;;23.12;23.23;95834.38;5090783;28;20197;-75
2022/03/23 09:04:40;;;;;;;5.15;3.30;;;;;;;22.62;23.72;95833.47;5090668;28;20197;-78
2022/03/23 09:07:07;;;;;;;7.15;3.15;;;;;;;22.29;23.85;95827.88;5089727;28;20530;-77
2022/03/23 09:09:35;;;;;;;4.30;3.13;;;;;;;22.16;23.88;95831.16;5090978;28;20243;-75
2022/03/23 09:12:02;;;;;;;6.30;3.05;;;;;;;21.96;24.24;95827.44;5090438;28;20197;-76
2022/03/23 09:14:29;;;;;;;5.18;3.55;;;;;;;21.86;24.47;95826.91;5090402;28;20186;-75
2022/03/23 09:16:56;;;;;;;6.95;3.33;;;;;;;21.73;24.49;95824.94;5090355;28;20576;-77
2022/03/23 09:19:23;;;;;;;7.40;3.78;;;;;;;21.60;24.76;95816.94;5089219;28;20196;-76
2022/03/23 09:21:51;;;;;;;5.93;3.50;;;;;;;21.52;24.77;95829.03;5091511;28;20178;-74
2022/03/23 09:24:19;;;;;;;6.07;3.57;;;;;;;21.39;24.85;95821.03;5090231;28;20226;-76
2022/03/23 09:26:48;;;;;;;7.57;3.73;;;;;;;21.15;24.82;95821.19;5089838;28;20630;-77
2022/03/23 09:29:15;;;;;;;7.27;4.20;;;;;;;20.91;25.14;95823.03;5090307;28;20197;-75
2022/03/23 09:31:44;;;;;;;6.27;3.43;;;;;;;20.58;25.35;95813.81;5090407;28;20642;-78
2022/03/23 09:34:11;;;;;;;7.17;3.53;;;;;;;20.30;25.36;95817.69;5089645;28;20767;-78
2022/03/23 09:39:22;;;;;;;7.63;3.47;;;;;;;19.73;25.97;95810.13;5089834;28;20216;-75
2022/03/23 09:41:50;;;;;;;5.77;3.33;;;;;;;19.57;25.98;95814.50;5090046;28;20791;-78
2022/03/23 09:44:18;;;;;;;7.47;3.57;;;;;;;19.34;26.26;95811.75;5089224;28;20272;-76
2022/03/23 09:46:45;;;;;;;5.33;3.33;;;;;;;19.11;26.49;95801.25;5089732;28;20229;-75
2022/03/23 09:49:12;;;;;;;7.97;3.00;;;;;;;18.93;26.62;95793.66;5089861;28;20194;-76
2022/03/23 09:51:41;;;;;;;8.30;3.17;;;;;;;18.91;26.62;95800.78;5090332;28;20524;-75
2022/03/23 09:54:09;;;;;;;9.90;3.80;;;;;;;18.78;26.90;95799.50;5089050;28;20293;-77
2022/03/23 09:56:36;;;;;;;10.97;3.70;;;;;;;18.69;26.97;95794.41;5087406;28;20276;-77
2022/03/23 09:59:06;;;;;;;6.10;3.63;;;;;;;18.60;27.09;95785.81;5089839;28;20193;-76
2022/03/23 10:02:13;;;;;;;6.40;3.53;;;;;;;18.52;26.96;95797.00;5090090;28;20200;-76
2022/03/23 10:05:33;;;;;;;7.37;3.80;;;;;;;18.26;27.24;95789.34;5089504;28;20266;-76
2022/03/23 10:08:21;;;;;;;6.23;3.57;;;;;;;18.12;27.28;95784.75;5087887;28;20660;-78
2022/03/23 10:11:25;;;;;;;10.70;3.80;;;;;;;18.10;27.48;95775.53;5087543;28;20189;-77
2022/03/23 10:14:28;;;;;;;7.93;3.67;;;;;;;18.09;27.39;95774.72;5087830;28;20564;-77
2022/03/23 10:17:30;;;;;;;6.00;3.10;;;;;;;18.01;27.40;95767.75;5006603;28;20691;-77
2022/03/23 10:20:12;;;;;;;6.13;3.33;;;;;;;18.09;27.39;95771.28;5006822;28;20270;-77
2022/03/23 10:22:46;;;;;;;7.13;2.87;;;;;;;18.06;27.31;95772.44;5006805;28;20239;-74
2022/03/23 10:25:14;;;;;;;8.70;3.20;;;;;;;17.98;27.39;95768.03;5006979;28;20196;-77
2022/03/23 10:27:46;;;;;;;8.37;3.60;;;;;;;17.94;27.35;95764.16;5006813;28;20219;-78
2022/03/23 10:30:16;;;;;;;5.40;3.30;;;;;;;17.91;27.38;95769.63;5007281;28;20192;-78
2022/03/23 10:32:44;;;;;;;5.03;3.33;;;;;;;17.81;27.37;95766.38;5006410;28;20227;-78
2022/03/23 10:35:13;;;;;;;4.43;3.23;;;;;;;17.76;27.33;95755.66;5006328;28;20255;-80
2022/03/23 10:37:41;;;;;;;9.63;3.73;;;;;;;17.67;27.28;95762.56;5007109;28;20224;-76
2022/03/23 10:40:10;;;;;;;6.73;3.33;;;;;;;17.54;27.32;95770.75;5007068;28;20203;-77
2022/03/23 10:42:40;;;;;;;7.83;3.83;;;;;;;17.44;27.85;95770.06;5006561;28;20191;-78
2022/03/23 10:45:10;;;;;;;3.67;3.17;;;;;;;17.39;27.72;95759.34;5006863;28;20196;-77
2022/03/23 10:47:39;;;;;;;6.20;3.67;;;;;;;17.37;28.04;95755.28;5006629;28;20370;-80
2022/03/23 10:50:26;;;;;;;9.30;3.97;;;;;;;17.35;28.05;95760.59;5006826;28;20237;-75
2022/03/23 10:52:58;;;;;;;5.70;3.10;;;;;;;17.29;27.99;95764.63;5010874;28;20754;-79
2022/03/23 10:55:26;;;;;;;10.93;3.37;;;;;;;17.23;28.26;95756.69;5086401;28;20690;-76
2022/03/23 10:58:25;;;;;;;7.37;3.40;;;;;;;17.09;28.21;95747.69;5086263;28;20204;-78
2022/03/23 11:00:55;;;;;;;8.10;3.27;;;;;;;17.00;28.41;95744.22;5087573;28;20277;-74
2022/03/23 11:03:37;;;;;;;5.33;2.83;;;;;;;16.98;28.33;95740.19;5088983;28;20204;-78
2022/03/23 11:06:07;;;;;;;7.63;4.00;;;;;;;16.89;28.60;95721.22;5087805;28;20284;-76
2022/03/23 11:08:34;;;;;;;5.47;3.10;;;;;;;16.91;28.85;95732.22;5088560;28;20717;-77
2022/03/23 11:16:37;;;;;;;7.70;3.20;;;;;;;16.93;28.75;95721.75;5086533;28;20201;-75
2022/03/23 11:19:08;;;;;;;4.93;3.37;;;;;;;16.95;28.57;95714.63;5088462;28;20197;-76
2022/03/23 11:21:57;;;;;;;8.33;3.23;;;;;;;16.86;28.64;95708.59;5090581;28;20189;-79
2022/03/23 11:24:24;;;;;;;10.80;3.27;;;;;;;16.86;28.64;95710.38;5087641;28;20279;-73
2022/03/23 11:26:52;;;;;;;7.77;3.40;;;;;;;16.69;28.70;95686.97;5088332;28;20636;-73
2022/03/23 11:29:20;;;;;;;8.30;3.70;;;;;;;16.86;28.57;95702.63;5088370;28;20226;-78
2022/03/23 11:31:47;;;;;;;8.27;3.40;;;;;;;16.83;28.85;95698.56;5091834;28;20197;-72
2022/03/23 11:34:18;;;;;;;4.60;3.03;;;;;;;16.87;28.62;95705.06;5092764;28;20208;-75
2022/03/23 11:36:48;;;;;;;6.70;3.77;;;;;;;16.83;28.91;95703.72;5092835;28;20831;-76
2022/03/23 11:39:15;;;;;;;7.63;3.30;;;;;;;16.78;28.54;95704.19;5092487;28;20193;-76
2022/03/23 11:41:43;;;;;;;6.57;3.53;;;;;;;16.75;28.80;95708.84;5092910;28;20189;-77
2022/03/23 11:44:14;;;;;;;5.97;3.57;;;;;;;16.70;28.64;95703.28;5092515;28;20193;-76
2022/03/23 11:46:42;;;;;;;6.47;3.07;;;;;;;16.54;28.81;95675.59;5089980;28;20209;-76
2022/03/23 11:49:19;;;;;;;5.93;3.17;;;;;;;16.50;29.07;95682.00;5092230;28;20706;-75
2022/03/23 11:52:35;;;;;;;10.80;3.63;;;;;;;16.55;28.92;95678.00;5092290;28;20239;-76
2022/03/23 11:58:21;;;;;;;3.70;3.13;;;;;;;16.43;28.94;95674.03;5029686;28;20306;-74
2022/03/23 12:00:53;;;;;;;6.60;3.43;;;;;;;16.37;29.21;95666.91;5029976;28;20214;-75
2022/03/23 12:03:53;;;;;;;10.37;3.50;;;;;;;16.40;29.12;95665.78;5030885;28;20219;-76
2022/03/23 12:06:22;;;;;;;8.93;4.00;;;;;;;16.37;29.16;95663.50;5028435;28;20211;-77
2022/03/23 12:08:52;;;;;;;9.47;4.10;;;;;;;16.38;29.19;95665.13;5028892;28;20316;-78
2022/03/23 12:11:49;;;;;;;7.57;4.63;;;;;;;16.35;29.15;95653.31;5029105;28;20251;-76